createdAt,value
2023-03-12T00:00:42.589Z,1.73
2023-03-12T00:03:10.936Z,1.73
2023-03-12T00:05:39.163Z,2.03
2023-03-12T00:08:07.788Z,1.20
2023-03-12T00:10:36.350Z,1.43
2023-03-12T00:13:04.408Z,1.80
2023-03-12T00:15:36.418Z,1.00
2023-03-12T00:18:04.540Z,1.20
2023-03-12T00:20:32.585Z,1.30
2023-03-12T00:23:00.597Z,2.00
2023-03-12T00:25:28.887Z,1.40
2023-03-12T00:27:56.968Z,2.20
2023-03-12T00:30:28.447Z,1.10
2023-03-12T00:32:57.900Z,1.67
2023-03-12T00:35:26.092Z,1.87
2023-03-12T00:37:54.247Z,1.73
2023-03-12T00:40:22.300Z,2.13
2023-03-12T00:42:50.297Z,1.50
2023-03-12T00:45:18.400Z,2.33
2023-03-12T00:47:46.435Z,1.80
2023-03-12T00:50:16.717Z,3.00
2023-03-12T00:52:45.007Z,1.93
2023-03-12T00:55:13.105Z,1.80
2023-03-12T00:57:41.476Z,1.17
2023-03-12T01:00:12.122Z,1.87
2023-03-12T01:02:40.967Z,2.60
2023-03-12T01:05:12.131Z,1.70
2023-03-12T01:07:41.697Z,1.17
2023-03-12T01:10:12.924Z,1.30
2023-03-12T01:12:40.954Z,1.33
2023-03-12T01:15:10.780Z,2.20
2023-03-12T01:17:38.773Z,1.83
2023-03-12T01:20:08.249Z,2.20
2023-03-12T01:22:36.892Z,1.90
2023-03-12T01:25:07.878Z,1.80
2023-03-12T01:27:35.844Z,2.30
2023-03-12T01:30:05.503Z,1.90
2023-03-12T01:32:33.907Z,2.00
2023-03-12T01:35:01.993Z,1.90
2023-03-12T01:37:30.399Z,3.27
2023-03-12T01:39:58.501Z,1.80
2023-03-12T01:42:28.244Z,2.90
2023-03-12T01:44:58.668Z,3.00
2023-03-12T01:47:27.771Z,1.73
2023-03-12T01:49:57.159Z,2.10
2023-03-12T01:52:30.489Z,1.90
2023-03-12T01:55:03.581Z,2.63
2023-03-12T01:57:39.003Z,3.07
2023-03-12T02:00:14.002Z,1.97
2023-03-12T02:02:44.392Z,2.50
2023-03-12T02:05:23.846Z,1.60
2023-03-12T02:07:51.895Z,1.80
2023-03-12T02:10:20.728Z,1.97
2023-03-12T02:12:50.719Z,2.17
2023-03-12T02:15:19.465Z,2.70
2023-03-12T02:17:47.919Z,1.80
2023-03-12T02:20:21.481Z,1.17
2023-03-12T02:23:06.093Z,1.87
2023-03-12T02:25:40.810Z,1.83
2023-03-12T02:28:10.905Z,1.93
2023-03-12T02:30:42.660Z,1.97
2023-03-12T02:33:11.571Z,2.30
2023-03-12T02:35:39.725Z,1.80
2023-03-12T02:38:34.941Z,1.20
2023-03-12T02:41:08.839Z,2.00
2023-03-12T02:43:39.652Z,1.70
2023-03-12T02:46:09.139Z,1.97
2023-03-12T02:48:37.502Z,1.67
2023-03-12T02:51:06.011Z,1.10
2023-03-12T02:53:34.406Z,1.07
2023-03-12T02:56:04.768Z,1.60
2023-03-12T02:58:33.251Z,1.30
2023-03-12T03:01:02.828Z,2.03
2023-03-12T03:03:31.027Z,2.13
2023-03-12T03:05:59.208Z,1.60
2023-03-12T03:08:27.277Z,1.90
2023-03-12T03:10:55.308Z,1.63
2023-03-12T03:13:25.371Z,1.97
2023-03-12T03:15:53.401Z,2.13
2023-03-12T03:18:21.696Z,2.10
2023-03-12T03:20:56.538Z,1.50
2023-03-12T03:23:24.937Z,2.13
2023-03-12T03:25:53.841Z,2.03
2023-03-12T03:28:24.989Z,2.17
2023-03-12T03:30:54.480Z,1.70
2023-03-12T03:33:22.961Z,2.00
2023-03-12T03:35:51.669Z,1.37
2023-03-12T03:38:19.824Z,1.47
2023-03-12T03:40:47.983Z,1.23
2023-03-12T03:43:16.297Z,1.73
2023-03-12T03:45:46.783Z,1.77
2023-03-12T03:48:15.814Z,1.77
2023-03-12T03:50:44.056Z,1.83
2023-03-12T03:53:12.666Z,1.00
2023-03-12T03:55:42.108Z,2.17
2023-03-12T03:58:11.588Z,1.60
2023-03-12T04:00:40.403Z,1.53
2023-03-12T04:03:09.847Z,1.60
2023-03-12T04:05:38.341Z,2.53
2023-03-12T04:08:07.183Z,1.00
2023-03-12T04:10:35.224Z,1.60
2023-03-12T04:13:03.674Z,1.03
2023-03-12T04:15:32.237Z,1.63
2023-03-12T04:18:00.934Z,1.60
2023-03-12T04:20:31.680Z,1.87
2023-03-12T04:23:01.358Z,1.27
2023-03-12T04:25:29.750Z,1.47
2023-03-12T04:27:57.911Z,1.53
2023-03-12T04:30:25.980Z,2.17
2023-03-12T04:32:54.884Z,2.03
2023-03-12T04:35:24.960Z,2.20
2023-03-12T04:37:55.222Z,1.70
2023-03-12T04:40:23.626Z,1.40
2023-03-12T04:42:52.553Z,1.40
2023-03-12T04:45:21.149Z,1.53
2023-03-12T04:47:49.430Z,1.40
2023-03-12T04:50:17.951Z,1.53
2023-03-12T04:52:46.157Z,1.30
2023-03-12T04:55:15.904Z,1.43
2023-03-12T04:57:44.275Z,1.57
2023-03-12T05:00:14.220Z,1.70
2023-03-12T05:02:44.373Z,1.70
2023-03-12T05:05:13.741Z,1.97
2023-03-12T05:07:41.961Z,1.60
2023-03-12T05:10:10.939Z,1.10
2023-03-12T05:12:41.200Z,1.33
2023-03-12T05:15:10.144Z,1.73
2023-03-12T05:17:38.394Z,1.80
2023-03-12T05:20:07.883Z,2.83
2023-03-12T05:22:36.239Z,1.40
2023-03-12T05:25:04.898Z,2.40
2023-03-12T05:27:33.907Z,1.53
2023-03-12T05:30:04.795Z,1.50
2023-03-12T05:32:33.556Z,1.53
2023-03-12T05:35:01.959Z,1.53
2023-03-12T05:37:30.522Z,1.23
2023-03-12T05:39:58.937Z,0.80
2023-03-12T05:42:28.641Z,1.37
2023-03-12T05:44:59.317Z,1.23
2023-03-12T05:47:29.185Z,0.70
2023-03-12T05:49:57.234Z,0.90
2023-03-12T05:52:25.595Z,0.97
2023-03-12T05:54:54.172Z,0.80
2023-03-12T05:57:22.174Z,1.30
2023-03-12T05:59:50.194Z,1.03
2023-03-12T06:02:18.524Z,1.17
2023-03-12T06:04:48.212Z,0.70
2023-03-12T06:07:16.382Z,1.63
2023-03-12T06:09:44.412Z,1.00
2023-03-12T06:12:14.038Z,1.00
2023-03-12T06:14:42.023Z,0.73
2023-03-12T06:17:10.035Z,1.30
2023-03-12T06:19:38.344Z,1.80
2023-03-12T06:22:07.932Z,1.70
2023-03-12T06:24:36.108Z,1.50
2023-03-12T06:27:08.498Z,1.67
2023-03-12T06:29:36.567Z,1.23
2023-03-12T06:32:04.718Z,1.60
2023-03-12T06:34:32.797Z,1.10
2023-03-12T06:37:01.285Z,2.03
2023-03-12T06:39:30.927Z,2.40
2023-03-12T06:41:58.923Z,1.70
2023-03-12T06:44:26.991Z,0.97
2023-03-12T06:46:54.957Z,2.50
2023-03-12T06:49:22.966Z,1.27
2023-03-12T06:51:51.052Z,2.00
2023-03-12T06:54:19.050Z,2.00
2023-03-12T06:56:48.581Z,2.30
2023-03-12T06:59:18.368Z,1.03
2023-03-12T07:01:46.523Z,1.20
2023-03-12T07:04:14.575Z,1.23
2023-03-12T07:06:42.821Z,2.03
2023-03-12T07:09:11.612Z,1.73
2023-03-12T07:11:39.674Z,1.10
2023-03-12T07:14:09.116Z,1.70
2023-03-12T07:16:37.147Z,1.10
2023-03-12T07:19:05.543Z,1.37
2023-03-12T07:21:33.516Z,1.67
2023-03-12T07:24:06.728Z,1.00
2023-03-12T07:26:35.354Z,1.30
2023-03-12T07:29:03.806Z,1.67
2023-03-12T07:31:33.224Z,1.00
2023-03-12T07:34:03.019Z,1.33
2023-03-12T07:36:31.268Z,1.23
2023-03-12T07:38:59.349Z,1.37
2023-03-12T07:41:27.572Z,1.63
2023-03-12T07:43:55.550Z,1.57
2023-03-12T07:46:23.677Z,1.37
2023-03-12T07:48:53.215Z,1.43
2023-03-12T07:51:21.310Z,1.17
2023-03-12T07:53:49.316Z,1.37
2023-03-12T07:56:17.474Z,2.27
2023-03-12T07:58:46.372Z,1.40
2023-03-12T08:01:14.760Z,1.17
2023-03-12T08:03:43.362Z,1.60
2023-03-12T08:06:12.928Z,2.40
2023-03-12T08:08:42.394Z,1.57
2023-03-12T08:11:10.627Z,1.23
2023-03-12T08:13:38.598Z,1.53
2023-03-12T08:16:09.348Z,1.97
2023-03-12T08:18:37.565Z,1.17
2023-03-12T08:21:05.917Z,2.50
2023-03-12T08:23:35.601Z,1.73
2023-03-12T08:26:03.610Z,1.70
2023-03-12T08:28:31.586Z,1.30
2023-03-12T08:31:01.468Z,2.00
2023-03-12T08:33:29.726Z,1.10
2023-03-12T08:35:57.715Z,1.70
2023-03-12T08:38:25.807Z,0.67
2023-03-12T08:41:01.044Z,1.30
2023-03-12T08:43:29.682Z,1.80
2023-03-12T08:45:58.826Z,2.93
2023-03-12T08:48:27.775Z,1.10
2023-03-12T08:50:57.280Z,1.60
2023-03-12T08:53:26.134Z,1.30
2023-03-12T08:55:54.734Z,2.00
2023-03-12T08:58:25.428Z,1.77
2023-03-12T09:00:53.819Z,2.10
2023-03-12T09:03:22.497Z,1.40
2023-03-12T09:05:51.675Z,1.60
2023-03-12T09:08:19.663Z,2.40
2023-03-12T09:10:51.018Z,2.23
2023-03-12T09:13:19.025Z,1.90
2023-03-12T09:15:48.385Z,2.23
2023-03-12T09:18:16.527Z,1.60
2023-03-12T09:20:44.750Z,2.67
2023-03-12T09:23:12.721Z,1.30
2023-03-12T09:25:40.669Z,1.67
2023-03-12T09:28:09.811Z,2.30
2023-03-12T09:30:38.071Z,3.47
2023-03-12T09:33:07.753Z,2.77
2023-03-12T09:35:36.422Z,2.57
2023-03-12T09:38:04.955Z,3.70
2023-03-12T09:40:36.407Z,2.07
2023-03-12T09:43:10.691Z,2.20
2023-03-12T09:45:40.592Z,2.10
2023-03-12T09:48:17.478Z,1.83
2023-03-12T09:50:48.656Z,2.50
2023-03-12T09:53:29.453Z,2.40
2023-03-12T09:55:59.299Z,3.23
2023-03-12T09:58:31.579Z,2.00
2023-03-12T10:01:07.984Z,1.87
2023-03-12T10:04:15.689Z,2.27
2023-03-12T10:06:50.764Z,2.30
2023-03-12T10:09:47.005Z,2.50
2023-03-12T10:12:25.538Z,1.90
2023-03-12T10:15:04.084Z,1.97
2023-03-12T10:17:51.991Z,2.20
2023-03-12T10:20:47.982Z,1.80
2023-03-12T10:23:28.013Z,2.37
2023-03-12T10:26:01.038Z,2.13
2023-03-12T10:28:35.484Z,2.80
2023-03-12T10:31:07.667Z,2.60
2023-03-12T10:33:44.051Z,2.77
2023-03-12T10:36:17.866Z,2.30
2023-03-12T10:38:49.281Z,2.20
2023-03-12T10:41:19.312Z,3.33
2023-03-12T10:43:47.512Z,2.60
2023-03-12T10:46:39.982Z,2.13
2023-03-12T10:49:31.737Z,2.40
2023-03-12T10:52:03.291Z,1.90
2023-03-12T10:54:35.764Z,1.90
2023-03-12T10:57:04.382Z,3.17
2023-03-12T10:59:34.501Z,2.43
2023-03-12T11:02:24.792Z,2.87
2023-03-12T11:04:53.727Z,2.77
2023-03-12T11:07:27.645Z,2.70
2023-03-12T11:10:18.499Z,3.73
2023-03-12T11:13:03.035Z,3.63
2023-03-12T11:15:40.592Z,3.27
2023-03-12T11:18:25.227Z,3.53
2023-03-12T11:20:56.436Z,3.13
2023-03-12T11:23:28.655Z,3.73
2023-03-12T11:26:01.754Z,3.63
2023-03-12T11:28:37.583Z,3.30
2023-03-12T11:31:09.281Z,4.60
2023-03-12T11:33:37.398Z,3.60
2023-03-12T11:36:18.971Z,2.90
2023-03-12T11:38:56.495Z,4.30
2023-03-12T11:41:41.184Z,4.67
2023-03-12T11:44:28.754Z,3.10
2023-03-12T11:47:08.299Z,4.47
2023-03-12T11:49:55.772Z,3.77
2023-03-12T11:52:36.074Z,4.30
2023-03-12T11:55:19.836Z,4.90
2023-03-12T11:58:02.030Z,3.83
2023-03-12T12:00:35.031Z,4.20
2023-03-12T12:03:33.802Z,5.87
2023-03-12T12:06:05.771Z,4.57
2023-03-12T12:08:51.297Z,3.50
2023-03-12T12:11:25.812Z,5.10
2023-03-12T12:14:02.867Z,3.70
2023-03-12T12:16:45.625Z,3.33
2023-03-12T12:19:28.042Z,4.00
2023-03-12T12:22:08.346Z,3.63
2023-03-12T12:24:51.576Z,3.90
2023-03-12T12:27:22.345Z,4.13
2023-03-12T12:30:12.450Z,3.57
2023-03-12T12:33:04.248Z,3.33
2023-03-12T12:35:37.492Z,4.30
2023-03-12T12:38:10.860Z,3.27
2023-03-12T12:40:41.890Z,4.63
2023-03-12T12:43:24.893Z,3.90
2023-03-12T12:45:57.372Z,2.50
2023-03-12T12:48:30.355Z,2.97
2023-03-12T12:51:00.809Z,4.13
2023-03-12T12:53:35.049Z,3.40
2023-03-12T12:56:12.544Z,2.50
2023-03-12T12:59:09.657Z,2.47
2023-03-12T13:01:39.897Z,3.23
2023-03-12T13:04:14.505Z,2.80
2023-03-12T13:07:02.394Z,3.27
2023-03-12T13:09:43.324Z,3.67
2023-03-12T13:12:16.866Z,2.50
2023-03-12T13:14:47.913Z,2.07
2023-03-12T13:17:35.068Z,3.53
2023-03-12T13:20:16.052Z,2.70
2023-03-12T13:23:00.997Z,3.50
2023-03-12T13:25:50.940Z,2.50
2023-03-12T13:28:35.940Z,2.43
2023-03-12T13:31:19.781Z,2.70
2023-03-12T13:33:50.821Z,4.33
2023-03-12T13:36:24.590Z,3.20
2023-03-12T13:38:59.044Z,3.23
2023-03-12T13:41:38.884Z,1.87
2023-03-12T13:44:30.065Z,2.00
2023-03-12T13:47:02.432Z,2.90
2023-03-12T13:49:38.072Z,2.17
2023-03-12T13:52:23.352Z,2.60
2023-03-12T13:55:00.556Z,3.03
2023-03-12T13:57:40.039Z,2.73
2023-03-12T14:00:17.660Z,3.03
2023-03-12T14:02:50.583Z,2.43
2023-03-12T14:05:21.171Z,2.40
2023-03-12T14:08:18.854Z,1.80
2023-03-12T14:11:04.494Z,1.77
2023-03-12T14:13:45.977Z,1.53
2023-03-12T14:16:22.189Z,1.90
2023-03-12T14:18:52.574Z,2.57
2023-03-12T14:21:25.099Z,3.07
2023-03-12T14:23:57.023Z,1.67
2023-03-12T14:26:28.204Z,3.30
2023-03-12T14:29:00.739Z,2.23
2023-03-12T14:31:31.201Z,2.33
2023-03-12T14:34:03.991Z,2.47
2023-03-12T14:36:39.787Z,2.20
2023-03-12T14:39:19.921Z,2.03
2023-03-12T14:41:55.266Z,2.57
2023-03-12T14:44:25.902Z,2.53
2023-03-12T14:46:58.772Z,1.83
2023-03-12T14:49:26.903Z,2.03
2023-03-12T14:51:56.839Z,2.70
2023-03-12T14:54:26.992Z,2.30
2023-03-12T14:56:55.016Z,2.40
2023-03-12T14:59:29.177Z,2.90
2023-03-12T15:02:02.163Z,2.30
2023-03-12T15:04:34.527Z,2.50
2023-03-12T15:07:06.443Z,1.87
2023-03-12T15:09:37.134Z,1.87
2023-03-12T15:12:07.233Z,2.00
2023-03-12T15:14:39.410Z,2.60
2023-03-12T15:17:08.660Z,3.30
2023-03-12T15:19:40.246Z,2.93
2023-03-12T15:22:14.737Z,3.33
2023-03-12T15:24:43.403Z,2.80
2023-03-12T15:27:23.308Z,2.20
2023-03-12T15:29:51.301Z,2.00
2023-03-12T15:32:21.543Z,1.90
2023-03-12T15:34:49.884Z,2.10
2023-03-12T15:37:29.574Z,2.47
2023-03-12T15:39:58.468Z,2.27
2023-03-12T15:42:28.146Z,2.40
2023-03-12T15:44:57.957Z,1.77
2023-03-12T15:47:28.853Z,1.80
2023-03-12T15:49:59.604Z,1.70
2023-03-12T15:52:32.200Z,1.87
2023-03-12T15:55:02.735Z,1.83
2023-03-12T15:57:31.891Z,1.80
2023-03-12T16:00:22.916Z,1.90
2023-03-12T16:03:03.932Z,1.70
2023-03-12T16:05:33.514Z,2.40
2023-03-12T16:08:11.288Z,1.60
2023-03-12T16:10:39.923Z,1.87
2023-03-12T16:13:08.162Z,2.00
2023-03-12T16:15:38.873Z,2.80
2023-03-12T16:18:12.376Z,2.60
2023-03-12T16:20:40.401Z,1.90
2023-03-12T16:23:10.148Z,2.40
2023-03-12T16:25:38.717Z,1.87
2023-03-12T16:28:07.639Z,2.07
2023-03-12T16:30:37.872Z,2.20
2023-03-12T16:33:09.349Z,1.90
2023-03-12T16:35:37.903Z,1.80
2023-03-12T16:38:07.111Z,1.47
2023-03-12T16:40:38.913Z,2.10
2023-03-12T16:43:12.642Z,2.30
2023-03-12T16:45:44.759Z,2.43
2023-03-12T16:48:16.395Z,2.10
2023-03-12T16:50:48.688Z,2.30
2023-03-12T16:53:16.775Z,2.83
2023-03-12T16:55:49.102Z,2.10
2023-03-12T16:58:18.317Z,2.43
2023-03-12T17:00:47.066Z,2.23
2023-03-12T17:03:21.020Z,2.10
2023-03-12T17:05:49.104Z,2.13
2023-03-12T17:08:17.065Z,1.83
2023-03-12T17:10:46.628Z,1.60
2023-03-12T17:13:20.808Z,2.27
2023-03-12T17:15:49.317Z,2.73
2023-03-12T17:18:17.463Z,1.80
2023-03-12T17:20:45.771Z,2.20
2023-03-12T17:23:14.171Z,2.47
2023-03-12T17:25:44.335Z,2.50
2023-03-12T17:28:15.165Z,2.10
2023-03-12T17:30:44.952Z,2.03
2023-03-12T17:33:15.210Z,4.70
2023-03-12T17:35:44.170Z,2.40
2023-03-12T17:38:12.930Z,6.10
2023-03-12T17:40:41.804Z,2.90
2023-03-12T17:43:09.853Z,4.87
2023-03-12T17:45:39.725Z,10.67
2023-03-12T17:48:08.062Z,4.83
2023-03-12T17:50:36.580Z,2.80
2023-03-12T17:53:04.640Z,3.10
2023-03-12T17:55:32.604Z,2.50
2023-03-12T17:58:01.374Z,2.80
2023-03-12T18:00:29.343Z,2.83
2023-03-12T18:02:58.846Z,1.97
2023-03-12T18:05:26.896Z,3.03
2023-03-12T18:07:55.004Z,2.77
2023-03-12T18:10:22.980Z,3.87
2023-03-12T18:12:50.944Z,2.20
2023-03-12T18:15:18.987Z,2.90
2023-03-12T18:17:49.847Z,2.37
2023-03-12T18:20:28.728Z,2.13
2023-03-12T18:23:03.994Z,1.90
2023-03-12T18:25:31.980Z,3.17
2023-03-12T18:27:59.955Z,2.33
2023-03-12T18:30:28.232Z,1.77
2023-03-12T18:32:56.342Z,2.70
2023-03-12T18:35:28.806Z,2.10
2023-03-12T18:37:57.530Z,2.40
2023-03-12T18:40:25.719Z,2.00
2023-03-12T18:42:53.665Z,2.40
2023-03-12T18:45:21.626Z,1.60
2023-03-12T18:47:50.889Z,2.17
2023-03-12T18:50:19.201Z,2.10
2023-03-12T18:52:48.926Z,2.00
2023-03-12T18:55:16.967Z,2.63
2023-03-12T18:57:46.223Z,2.57
2023-03-12T19:00:17.588Z,2.10
2023-03-12T19:02:48.064Z,1.87
2023-03-12T19:05:17.177Z,2.30
2023-03-12T19:07:45.590Z,2.23
2023-03-12T19:10:16.293Z,2.07
2023-03-12T19:12:53.844Z,2.63
2023-03-12T19:15:23.813Z,1.47
2023-03-12T19:17:52.710Z,1.70
2023-03-12T19:20:21.478Z,2.00
2023-03-12T19:22:49.845Z,1.80
2023-03-12T19:25:20.424Z,3.07
2023-03-12T19:27:48.607Z,2.13
2023-03-12T19:30:17.162Z,2.43
2023-03-12T19:32:45.119Z,1.50
2023-03-12T19:35:15.241Z,2.10
2023-03-12T19:37:43.494Z,2.10
2023-03-12T19:40:13.264Z,1.70
2023-03-12T19:42:42.761Z,1.83
2023-03-12T19:45:11.757Z,2.27
2023-03-12T19:47:39.792Z,3.03
2023-03-12T19:50:08.547Z,2.60
2023-03-12T19:52:36.834Z,2.80
2023-03-12T19:55:05.838Z,2.27
2023-03-12T19:57:34.408Z,2.30
2023-03-12T20:00:07.203Z,2.10
2023-03-12T20:02:35.305Z,2.17
2023-03-12T20:05:03.407Z,2.80
2023-03-12T20:07:31.465Z,2.10
2023-03-12T20:09:59.510Z,3.13
2023-03-12T20:12:27.571Z,1.90
2023-03-12T20:14:55.567Z,2.83
2023-03-12T20:17:24.912Z,4.80
2023-03-12T20:19:52.853Z,4.53
2023-03-12T20:22:20.857Z,3.67
2023-03-12T20:24:48.864Z,2.07
2023-03-12T20:27:16.939Z,2.90
2023-03-12T20:29:46.098Z,2.30
2023-03-12T20:32:14.200Z,2.97
2023-03-12T20:34:43.623Z,2.80
2023-03-12T20:37:11.642Z,2.73
2023-03-12T20:39:39.668Z,2.60
2023-03-12T20:42:07.762Z,3.50
2023-03-12T20:44:35.788Z,2.27
2023-03-12T20:47:06.808Z,2.87
2023-03-12T20:49:34.777Z,2.33
2023-03-12T20:52:04.425Z,2.60
2023-03-12T20:54:32.720Z,3.10
2023-03-12T20:57:00.689Z,4.23
2023-03-12T20:59:28.767Z,2.10
2023-03-12T21:01:56.746Z,3.40
2023-03-12T21:04:24.710Z,3.03
2023-03-12T21:06:52.813Z,1.93
2023-03-12T21:09:23.271Z,2.20
2023-03-12T21:11:51.423Z,2.63
2023-03-12T21:14:19.397Z,2.40
2023-03-12T21:16:47.530Z,1.70
2023-03-12T21:19:15.575Z,2.37
2023-03-12T21:21:43.555Z,3.23
2023-03-12T21:24:11.670Z,2.70
2023-03-12T21:26:40.965Z,2.17
2023-03-12T21:29:08.924Z,1.60
2023-03-12T21:31:37.070Z,1.73
2023-03-12T21:34:05.592Z,2.87
2023-03-12T21:36:34.554Z,1.67
2023-03-12T21:39:02.793Z,2.53
2023-03-12T21:41:30.791Z,1.23
2023-03-12T21:44:02.242Z,1.87
2023-03-12T21:46:30.586Z,2.00
2023-03-12T21:48:59.546Z,1.80
2023-03-12T21:51:27.873Z,3.93
2023-03-12T21:53:56.587Z,3.10
2023-03-12T21:56:26.432Z,2.50
2023-03-12T21:58:55.573Z,1.93
2023-03-12T22:01:25.207Z,1.80
2023-03-12T22:03:53.464Z,1.80
2023-03-12T22:06:21.850Z,2.97
2023-03-12T22:08:52.127Z,2.73
2023-03-12T22:11:20.224Z,2.30
2023-03-12T22:13:48.190Z,1.90
2023-03-12T22:16:17.054Z,2.13
2023-03-12T22:18:47.303Z,1.33
2023-03-12T22:21:17.597Z,2.57
2023-03-12T22:23:47.731Z,2.03
2023-03-12T22:26:16.460Z,1.27
2023-03-12T22:28:48.170Z,2.00
2023-03-12T22:31:16.185Z,1.47
2023-03-12T22:33:45.885Z,1.93
2023-03-12T22:36:16.153Z,2.37
2023-03-12T22:38:44.588Z,1.63
2023-03-12T22:41:14.894Z,2.10
2023-03-12T22:43:42.896Z,1.70
2023-03-12T22:46:11.049Z,1.40
2023-03-12T22:48:39.133Z,2.10
2023-03-12T22:51:09.146Z,2.00
2023-03-12T22:53:37.648Z,1.10
2023-03-12T22:56:07.590Z,1.67
2023-03-12T22:58:36.143Z,1.30
2023-03-12T23:01:06.196Z,2.13
2023-03-12T23:03:35.240Z,2.23
2023-03-12T23:06:03.941Z,1.43
2023-03-12T23:08:33.346Z,2.07
2023-03-12T23:11:03.375Z,2.23
2023-03-12T23:13:33.905Z,1.63
2023-03-12T23:16:06.231Z,1.93
2023-03-12T23:18:34.727Z,1.80
2023-03-12T23:21:05.346Z,2.67
2023-03-12T23:23:35.761Z,1.03
2023-03-12T23:26:03.960Z,3.00
2023-03-12T23:28:32.255Z,1.37
2023-03-12T23:31:01.961Z,1.67
2023-03-12T23:33:31.345Z,1.63
2023-03-12T23:36:01.004Z,2.07
2023-03-12T23:38:30.472Z,1.00
2023-03-12T23:41:03.173Z,2.27
2023-03-12T23:43:31.224Z,2.13
2023-03-12T23:46:00.206Z,2.30
2023-03-12T23:48:28.833Z,1.80
2023-03-12T23:51:05.803Z,1.10
2023-03-12T23:53:34.682Z,1.60
2023-03-12T23:56:06.436Z,1.40
2023-03-12T23:58:34.862Z,2.07
